createdAt,value
2022-08-18T00:02:12.754Z,7.90
2022-08-18T00:04:49.022Z,7.25
2022-08-18T00:07:19.496Z,7.38
2022-08-18T00:09:47.925Z,7.65
2022-08-18T00:12:17.326Z,7.63
2022-08-18T00:14:45.856Z,7.85
2022-08-18T00:17:15.232Z,7.68
2022-08-18T00:19:46.238Z,7.47
2022-08-18T00:22:17.071Z,7.03
2022-08-18T00:24:48.497Z,7.47
2022-08-18T00:27:23.067Z,7.47
2022-08-18T00:29:52.087Z,7.82
2022-08-18T00:32:22.220Z,8.68
2022-08-18T00:34:50.254Z,8.02
2022-08-18T00:37:18.039Z,8.15
2022-08-18T00:39:47.948Z,8.27
2022-08-18T00:42:29.123Z,8.93
2022-08-18T00:45:00.669Z,8.73
2022-08-18T00:47:42.378Z,8.80
2022-08-18T00:50:15.026Z,8.88
2022-08-18T00:52:45.173Z,8.35
2022-08-18T00:55:13.157Z,8.52
2022-08-18T00:57:42.837Z,8.07
2022-08-18T01:00:13.734Z,7.85
2022-08-18T01:02:44.014Z,7.97
2022-08-18T01:05:13.757Z,6.95
2022-08-18T01:07:44.322Z,7.72
2022-08-18T01:10:16.406Z,8.20
2022-08-18T01:12:46.911Z,7.95
2022-08-18T01:15:29.622Z,7.78
2022-08-18T01:18:17.535Z,7.60
2022-08-18T01:21:09.422Z,8.10
2022-08-18T01:23:38.791Z,8.63
2022-08-18T01:26:06.391Z,8.13
2022-08-18T01:28:35.422Z,8.32
2022-08-18T01:31:04.169Z,8.60
2022-08-18T01:33:33.585Z,8.45
2022-08-18T01:36:03.816Z,9.27
2022-08-18T01:38:32.572Z,8.50
2022-08-18T01:41:26.417Z,8.90
2022-08-18T01:43:49.977Z,8.82
2022-08-18T01:46:20.053Z,8.23
2022-08-18T01:48:48.332Z,8.48
2022-08-18T01:51:17.876Z,8.23
2022-08-18T01:53:46.255Z,7.93
2022-08-18T01:56:17.780Z,8.20
2022-08-18T01:58:47.744Z,7.83
2022-08-18T02:01:15.861Z,8.47
2022-08-18T02:03:45.886Z,8.60
2022-08-18T02:06:15.167Z,7.83
2022-08-18T02:08:49.872Z,8.50
2022-08-18T02:11:23.682Z,7.97
2022-08-18T02:16:19.871Z,8.23
2022-08-18T02:18:48.950Z,8.87
2022-08-18T02:21:19.382Z,7.97
2022-08-18T02:23:53.214Z,8.40
2022-08-18T02:26:23.385Z,7.60
2022-08-18T02:28:51.352Z,8.20
2022-08-18T02:31:20.376Z,8.53
2022-08-18T02:33:52.014Z,8.80
2022-08-18T02:36:20.712Z,8.23
2022-08-18T02:38:59.956Z,8.27
2022-08-18T02:41:30.160Z,8.40
2022-08-18T02:43:58.353Z,8.27
2022-08-18T02:46:29.722Z,8.90
2022-08-18T02:48:58.400Z,8.93
2022-08-18T02:51:26.534Z,9.00
2022-08-18T02:53:54.582Z,9.20
2022-08-18T02:56:40.677Z,8.97
2022-08-18T02:59:12.731Z,8.57
2022-08-18T03:01:41.874Z,8.90
2022-08-18T03:04:10.770Z,8.60
2022-08-18T03:06:39.462Z,8.48
2022-08-18T03:09:08.477Z,9.53
2022-08-18T03:11:36.523Z,9.00
2022-08-18T03:14:05.371Z,9.23
2022-08-18T03:16:35.286Z,8.70
2022-08-18T03:19:03.344Z,9.37
2022-08-18T03:21:32.317Z,8.30
2022-08-18T03:24:01.832Z,9.27
2022-08-18T03:26:31.235Z,8.37
2022-08-18T03:29:00.128Z,8.77
2022-08-18T03:31:30.098Z,8.70
2022-08-18T03:34:00.014Z,8.40
2022-08-18T03:36:29.022Z,8.90
2022-08-18T03:38:57.125Z,8.57
2022-08-18T03:41:56.909Z,9.73
2022-08-18T03:44:15.310Z,9.40
2022-08-18T03:46:43.505Z,8.83
2022-08-18T03:49:13.446Z,8.90
2022-08-18T03:51:44.185Z,8.97
2022-08-18T03:54:13.359Z,8.50
2022-08-18T03:56:42.085Z,9.13
2022-08-18T03:59:12.932Z,8.73
2022-08-18T04:01:42.473Z,9.20
2022-08-18T04:04:13.755Z,9.07
2022-08-18T04:06:42.504Z,8.87
2022-08-18T04:09:12.008Z,8.03
2022-08-18T04:11:43.319Z,8.93
2022-08-18T04:14:13.194Z,8.93
2022-08-18T04:16:41.358Z,8.77
2022-08-18T04:19:09.456Z,8.80
2022-08-18T04:21:39.559Z,8.80
2022-08-18T04:24:08.341Z,9.07
2022-08-18T04:26:39.222Z,8.80
2022-08-18T04:29:07.771Z,8.30
2022-08-18T04:31:35.788Z,8.90
2022-08-18T04:34:04.507Z,8.07
2022-08-18T04:36:34.193Z,9.00
2022-08-18T04:39:03.840Z,9.70
2022-08-18T04:41:31.849Z,9.60
2022-08-18T04:44:00.569Z,9.03
2022-08-18T04:46:28.849Z,8.80
2022-08-18T04:48:59.142Z,8.93
2022-08-18T04:52:31.039Z,8.47
2022-08-18T04:54:16.632Z,8.80
2022-08-18T04:56:45.115Z,9.13
2022-08-18T04:59:14.065Z,8.33
2022-08-18T05:01:43.343Z,8.80
2022-08-18T05:04:14.321Z,9.30
2022-08-18T05:06:42.642Z,9.00
2022-08-18T05:09:11.130Z,9.70
2022-08-18T05:11:40.569Z,9.43
2022-08-18T05:14:09.276Z,9.70
2022-08-18T05:16:42.189Z,8.83
2022-08-18T05:19:19.858Z,9.53
2022-08-18T05:21:50.900Z,9.90
2022-08-18T05:24:19.817Z,9.17
2022-08-18T05:26:49.213Z,9.27
2022-08-18T05:29:18.383Z,10.60
2022-08-18T05:31:47.387Z,9.90
2022-08-18T05:34:15.330Z,10.17
2022-08-18T05:36:57.880Z,9.60
2022-08-18T05:39:27.006Z,10.37
2022-08-18T05:41:59.644Z,10.10
2022-08-18T05:44:28.536Z,10.80
2022-08-18T05:46:57.330Z,10.70
2022-08-18T05:49:26.422Z,9.90
2022-08-18T05:51:56.418Z,10.90
2022-08-18T05:54:41.705Z,10.67
2022-08-18T05:57:13.500Z,11.20
2022-08-18T05:59:44.803Z,10.60
2022-08-18T06:02:17.522Z,10.07
2022-08-18T06:04:48.215Z,9.57
2022-08-18T06:07:18.258Z,10.13
2022-08-18T06:09:48.817Z,9.63
2022-08-18T06:12:23.742Z,9.80
2022-08-18T06:14:52.556Z,9.60
2022-08-18T06:17:44.844Z,10.87
2022-08-18T06:20:19.861Z,9.50
2022-08-18T06:22:55.273Z,10.80
2022-08-18T06:25:26.725Z,11.43
2022-08-18T06:27:58.697Z,10.93
2022-08-18T06:30:33.147Z,10.97
2022-08-18T06:33:14.594Z,11.47
2022-08-18T06:35:45.681Z,11.37
2022-08-18T06:38:45.260Z,11.80
2022-08-18T06:41:42.760Z,11.57
2022-08-18T06:44:10.334Z,11.57
2022-08-18T06:46:42.475Z,11.37
2022-08-18T06:49:11.744Z,12.67
2022-08-18T06:51:40.902Z,11.27
2022-08-18T06:54:09.756Z,11.48
2022-08-18T06:56:47.993Z,13.25
2022-08-18T06:59:23.681Z,11.40
2022-08-18T07:01:53.274Z,11.90
2022-08-18T07:04:45.021Z,11.10
2022-08-18T07:07:15.483Z,11.20
2022-08-18T07:09:43.540Z,11.53
2022-08-18T07:12:11.867Z,11.45
2022-08-18T07:14:48.526Z,10.63
2022-08-18T07:17:22.326Z,10.70
2022-08-18T07:20:12.093Z,12.15
2022-08-18T07:22:55.918Z,9.93
2022-08-18T07:25:25.907Z,9.43
2022-08-18T07:27:56.272Z,7.10
2022-08-18T07:30:32.394Z,8.02
2022-08-18T07:33:04.295Z,7.50
2022-08-18T07:35:39.206Z,5.85
2022-08-18T07:38:40.790Z,5.13
2022-08-18T07:41:00.457Z,5.05
2022-08-18T07:43:30.226Z,4.65
2022-08-18T07:46:04.110Z,4.15
2022-08-18T07:48:40.628Z,4.25
2022-08-18T07:51:13.674Z,4.75
2022-08-18T07:53:55.786Z,3.80
2022-08-18T07:56:30.673Z,4.65
2022-08-18T07:58:59.939Z,4.55
2022-08-18T08:01:35.099Z,4.43
2022-08-18T08:04:08.188Z,4.50
2022-08-18T08:06:40.377Z,4.30
2022-08-18T08:09:11.417Z,4.90
2022-08-18T08:11:46.211Z,4.88
2022-08-18T08:14:26.599Z,4.57
2022-08-18T08:17:00.926Z,4.72
2022-08-18T08:20:00.157Z,4.82
2022-08-18T08:22:32.683Z,4.45
2022-08-18T08:25:13.549Z,4.75
2022-08-18T08:28:00.427Z,4.72
2022-08-18T08:30:29.343Z,4.75
2022-08-18T08:33:04.758Z,4.63
2022-08-18T08:35:49.338Z,4.47
2022-08-18T08:38:40.321Z,4.57
2022-08-18T08:41:10.556Z,4.18
2022-08-18T08:43:41.248Z,4.55
2022-08-18T08:46:11.482Z,4.30
2022-08-18T08:48:44.346Z,4.22
2022-08-18T08:51:39.726Z,4.03
2022-08-18T08:54:10.667Z,4.50
2022-08-18T08:56:46.483Z,4.00
2022-08-18T08:59:15.716Z,3.95
2022-08-18T09:01:47.842Z,3.55
2022-08-18T09:04:30.096Z,3.88
2022-08-18T09:07:14.403Z,3.78
2022-08-18T09:09:53.435Z,3.80
2022-08-18T09:12:28.420Z,3.90
2022-08-18T09:15:10.914Z,3.58
2022-08-18T09:17:55.589Z,3.70
2022-08-18T09:20:35.201Z,3.30
2022-08-18T09:23:05.699Z,3.88
2022-08-18T09:25:44.979Z,3.63
2022-08-18T09:28:14.290Z,3.38
2022-08-18T09:33:36.085Z,3.40
2022-08-18T09:36:20.198Z,3.40
2022-08-18T09:39:08.533Z,3.35
2022-08-18T09:41:45.608Z,3.63
2022-08-18T09:44:55.952Z,3.20
2022-08-18T09:47:58.405Z,3.50
2022-08-18T09:51:26.521Z,2.97
2022-08-18T09:54:14.738Z,3.00
2022-08-18T09:57:20.560Z,3.08
2022-08-18T10:00:28.294Z,2.60
2022-08-18T10:03:13.667Z,2.40
2022-08-18T10:05:56.793Z,2.50
2022-08-18T10:08:56.063Z,2.30
2022-08-18T10:11:30.885Z,2.10
2022-08-18T10:14:10.087Z,1.98
2022-08-18T10:17:13.412Z,2.28
2022-08-18T10:19:39.704Z,2.30
2022-08-18T10:22:38.413Z,2.20
2022-08-18T10:25:22.128Z,2.28
2022-08-18T10:27:54.877Z,2.38
2022-08-18T10:34:23.355Z,2.72
2022-08-18T10:36:53.586Z,2.22
2022-08-18T10:39:23.246Z,2.13
2022-08-18T10:42:01.611Z,2.28
2022-08-18T10:44:31.651Z,1.60
2022-08-18T10:47:00.464Z,2.25
2022-08-18T10:49:29.323Z,1.70
2022-08-18T10:52:20.794Z,1.52
2022-08-18T10:55:03.909Z,1.50
2022-08-18T10:57:36.487Z,1.65
2022-08-18T11:00:09.686Z,1.40
2022-08-18T11:03:01.973Z,1.30
2022-08-18T11:08:20.879Z,1.42
2022-08-18T11:11:34.543Z,1.40
2022-08-18T11:13:49.862Z,1.23
2022-08-18T11:16:26.185Z,1.45
2022-08-18T11:18:58.266Z,1.40
2022-08-18T11:21:33.563Z,1.00
2022-08-18T11:24:10.066Z,1.13
2022-08-18T11:26:39.219Z,1.27
2022-08-18T11:29:29.216Z,1.40
2022-08-18T11:32:04.360Z,1.30
2022-08-18T11:34:41.168Z,1.70
2022-08-18T11:37:23.591Z,0.90
2022-08-18T11:39:52.557Z,0.90
2022-08-18T11:42:25.037Z,0.98
2022-08-18T11:44:55.424Z,0.80
2022-08-18T11:47:28.004Z,1.00
2022-08-18T11:50:00.294Z,1.10
2022-08-18T11:52:35.126Z,0.90
2022-08-18T11:55:14.755Z,0.93
2022-08-18T11:57:53.558Z,1.30
2022-08-18T12:00:57.212Z,0.90
2022-08-18T12:03:39.986Z,1.10
2022-08-18T12:06:19.944Z,1.00
2022-08-18T12:08:57.118Z,1.02
2022-08-18T12:11:28.828Z,1.10
2022-08-18T12:14:31.301Z,1.10
2022-08-18T12:16:56.002Z,1.50
2022-08-18T12:19:28.054Z,1.30
2022-08-18T12:21:57.473Z,1.50
2022-08-18T12:24:34.576Z,1.20
2022-08-18T12:27:20.478Z,1.20
2022-08-18T12:29:50.390Z,1.55
2022-08-18T12:32:49.012Z,1.10
2022-08-18T12:35:10.275Z,1.40
2022-08-18T12:40:27.954Z,1.10
2022-08-18T12:42:56.379Z,1.30
2022-08-18T12:45:27.262Z,1.30
2022-08-18T12:47:55.662Z,1.10
2022-08-18T12:50:31.076Z,1.52
2022-08-18T12:53:01.130Z,1.02
2022-08-18T12:55:29.889Z,1.23
2022-08-18T12:57:57.881Z,1.00
2022-08-18T13:00:27.989Z,1.10
2022-08-18T13:02:57.610Z,1.00
2022-08-18T13:05:29.694Z,1.15
2022-08-18T13:07:59.052Z,1.20
2022-08-18T13:10:44.847Z,1.02
2022-08-18T13:13:14.710Z,0.90
2022-08-18T13:15:55.419Z,0.88
2022-08-18T13:18:28.961Z,1.20
2022-08-18T13:20:58.926Z,1.05
2022-08-18T13:23:27.643Z,0.98
2022-08-18T13:25:55.905Z,1.00
2022-08-18T13:28:30.646Z,1.02
2022-08-18T13:31:01.850Z,0.80
2022-08-18T13:33:34.505Z,0.73
2022-08-18T13:36:10.944Z,1.02
2022-08-18T13:38:40.484Z,0.80
2022-08-18T13:41:15.836Z,1.00
2022-08-18T13:43:47.887Z,0.90
2022-08-18T13:46:18.475Z,1.00
2022-08-18T13:48:47.768Z,0.82
2022-08-18T13:51:19.296Z,1.10
2022-08-18T13:53:58.991Z,0.90
2022-08-18T13:56:34.760Z,0.90
2022-08-18T13:59:05.071Z,0.88
2022-08-18T14:01:44.266Z,0.90
2022-08-18T14:04:20.454Z,0.73
2022-08-18T14:06:57.162Z,1.10
2022-08-18T14:09:36.034Z,0.82
2022-08-18T14:12:07.132Z,0.80
2022-08-18T14:14:44.160Z,0.80
2022-08-18T14:17:12.561Z,0.63
2022-08-18T14:19:58.016Z,0.70
2022-08-18T14:22:45.081Z,0.63
2022-08-18T14:25:30.462Z,0.60
2022-08-18T14:27:59.093Z,0.57
2022-08-18T14:30:32.253Z,0.60
2022-08-18T14:33:00.470Z,0.50
2022-08-18T14:36:03.641Z,0.38
2022-08-18T14:38:18.890Z,0.50
2022-08-18T14:40:49.137Z,0.60
2022-08-18T14:43:18.558Z,0.50
2022-08-18T14:45:48.877Z,0.40
2022-08-18T14:48:17.655Z,0.60
2022-08-18T14:50:49.316Z,0.40
2022-08-18T14:53:20.188Z,0.68
2022-08-18T14:55:52.011Z,0.55
2022-08-18T14:58:20.208Z,0.50
2022-08-18T15:00:53.294Z,0.40
2022-08-18T15:03:28.236Z,0.60
2022-08-18T15:05:59.084Z,0.60
2022-08-18T15:08:28.853Z,0.80
2022-08-18T15:10:57.436Z,0.70
2022-08-18T15:13:26.587Z,0.75
2022-08-18T15:15:55.925Z,0.90
2022-08-18T15:18:31.297Z,1.02
2022-08-18T15:21:19.462Z,1.20
2022-08-18T15:24:21.311Z,1.10
2022-08-18T15:26:51.657Z,1.40
2022-08-18T15:29:27.765Z,1.40
2022-08-18T15:32:02.271Z,1.50
2022-08-18T15:34:47.381Z,1.65
2022-08-18T15:37:22.208Z,1.67
2022-08-18T15:40:02.473Z,1.50
2022-08-18T15:42:30.880Z,1.52
2022-08-18T15:45:11.985Z,1.70
2022-08-18T15:47:42.071Z,1.63
2022-08-18T15:50:25.634Z,2.20
2022-08-18T15:52:56.150Z,2.00
2022-08-18T15:55:26.490Z,2.25
2022-08-18T15:57:57.993Z,1.90
2022-08-18T16:00:27.314Z,2.10
2022-08-18T16:02:58.691Z,2.35
2022-08-18T16:05:29.121Z,2.30
2022-08-18T16:07:58.836Z,2.60
2022-08-18T16:10:32.285Z,2.17
2022-08-18T16:13:01.694Z,2.60
2022-08-18T16:15:30.894Z,2.42
2022-08-18T16:17:59.713Z,2.55
2022-08-18T16:20:29.397Z,2.10
2022-08-18T16:22:58.598Z,1.63
2022-08-18T16:25:28.030Z,1.63
2022-08-18T16:27:56.108Z,1.70
2022-08-18T16:30:25.061Z,1.65
2022-08-18T16:32:53.448Z,1.60
2022-08-18T16:35:21.846Z,1.80
2022-08-18T16:37:50.301Z,1.92
2022-08-18T16:40:19.231Z,2.25
2022-08-18T16:42:53.895Z,2.00
2022-08-18T16:45:22.542Z,1.83
2022-08-18T16:47:50.548Z,2.10
2022-08-18T16:50:19.384Z,1.98
2022-08-18T16:52:47.534Z,2.10
2022-08-18T16:55:15.669Z,1.85
2022-08-18T16:58:01.825Z,1.85
2022-08-18T17:00:54.460Z,1.73
2022-08-18T17:03:40.885Z,1.60
2022-08-18T17:06:10.918Z,2.05
2022-08-18T17:08:39.163Z,1.42
2022-08-18T17:11:09.488Z,1.75
2022-08-18T17:13:37.924Z,1.90
2022-08-18T17:16:07.750Z,2.38
2022-08-18T17:18:36.164Z,1.85
2022-08-18T17:21:05.047Z,2.08
2022-08-18T17:23:33.032Z,2.30
2022-08-18T17:26:02.653Z,2.22
2022-08-18T17:28:35.097Z,2.22
2022-08-18T17:31:03.547Z,2.08
2022-08-18T17:33:33.989Z,2.30
2022-08-18T17:36:05.028Z,2.30
2022-08-18T17:38:36.873Z,2.45
2022-08-18T17:41:05.081Z,2.20
2022-08-18T17:43:34.038Z,2.47
2022-08-18T17:46:04.151Z,1.83
2022-08-18T17:48:35.213Z,1.80
2022-08-18T17:51:22.226Z,1.80
2022-08-18T17:53:50.244Z,1.63
2022-08-18T17:56:19.754Z,1.80
2022-08-18T17:58:53.280Z,1.50
2022-08-18T18:01:21.339Z,1.60
2022-08-18T18:03:51.688Z,1.60
2022-08-18T18:06:31.789Z,2.40
2022-08-18T18:09:01.208Z,1.58
2022-08-18T18:11:32.392Z,1.70
2022-08-18T18:14:01.193Z,1.70
2022-08-18T18:16:35.118Z,1.90
2022-08-18T18:19:07.628Z,1.48
2022-08-18T18:22:00.383Z,1.80
2022-08-18T18:24:29.925Z,1.92
2022-08-18T18:26:58.346Z,2.03
2022-08-18T18:29:32.417Z,1.80
2022-08-18T18:32:03.545Z,1.92
2022-08-18T18:34:39.677Z,2.10
2022-08-18T18:37:23.712Z,1.63
2022-08-18T18:39:56.343Z,1.70
2022-08-18T18:42:25.998Z,2.20
2022-08-18T18:44:55.368Z,1.90
2022-08-18T18:47:37.432Z,2.28
2022-08-18T18:50:09.103Z,1.83
2022-08-18T18:52:42.257Z,2.30
2022-08-18T18:55:14.958Z,2.20
2022-08-18T18:57:46.077Z,2.22
2022-08-18T19:00:20.607Z,1.95
2022-08-18T19:02:55.082Z,1.98
2022-08-18T19:05:29.329Z,2.20
2022-08-18T19:08:03.930Z,1.70
2022-08-18T19:10:36.059Z,1.55
2022-08-18T19:13:06.037Z,1.60
2022-08-18T19:15:38.106Z,1.70
2022-08-18T19:18:15.793Z,1.48
2022-08-18T19:22:02.120Z,2.30
2022-08-18T19:23:45.236Z,2.72
2022-08-18T19:26:15.607Z,2.70
2022-08-18T19:29:12.409Z,2.65
2022-08-18T19:31:36.343Z,2.47
2022-08-18T19:34:08.464Z,2.30
2022-08-18T19:36:43.889Z,2.05
2022-08-18T19:39:14.200Z,2.55
2022-08-18T19:41:47.173Z,2.65
2022-08-18T19:44:38.121Z,2.38
2022-08-18T19:47:09.909Z,2.50
2022-08-18T19:49:41.902Z,2.83
2022-08-18T19:52:46.709Z,2.45
2022-08-18T19:55:19.943Z,3.20
2022-08-18T19:58:10.638Z,2.53
2022-08-18T20:00:42.661Z,2.53
2022-08-18T20:03:48.705Z,3.08
2022-08-18T20:06:35.903Z,2.97
2022-08-18T20:09:21.321Z,2.28
2022-08-18T20:11:57.289Z,2.13
2022-08-18T20:14:25.685Z,1.67
2022-08-18T20:17:14.527Z,1.95
2022-08-18T20:19:45.746Z,1.90
2022-08-18T20:22:29.326Z,1.92
2022-08-18T20:25:06.152Z,2.70
2022-08-18T20:27:36.545Z,2.30
2022-08-18T20:30:32.858Z,2.70
2022-08-18T20:33:30.194Z,2.50
2022-08-18T20:36:07.117Z,2.40
2022-08-18T20:38:37.009Z,2.00
2022-08-18T20:41:39.088Z,1.70
2022-08-18T20:44:37.989Z,1.90
2022-08-18T20:47:14.437Z,1.60
2022-08-18T20:49:50.417Z,1.65
2022-08-18T20:52:24.353Z,1.63
2022-08-18T20:55:03.214Z,1.40
2022-08-18T20:57:41.309Z,1.52
2022-08-18T21:00:15.728Z,1.50
2022-08-18T21:02:50.251Z,1.77
2022-08-18T21:05:27.796Z,1.30
2022-08-18T21:08:02.372Z,1.23
2022-08-18T21:10:31.096Z,1.60
2022-08-18T21:13:01.742Z,1.92
2022-08-18T21:15:30.831Z,2.40
2022-08-18T21:18:00.216Z,2.80
2022-08-18T21:20:28.326Z,2.90
2022-08-18T21:23:04.422Z,3.30
2022-08-18T21:25:33.680Z,2.97
2022-08-18T21:28:04.025Z,2.93
2022-08-18T21:30:32.982Z,3.27
2022-08-18T21:33:02.120Z,3.28
2022-08-18T21:35:31.095Z,2.72
2022-08-18T21:38:00.795Z,2.97
2022-08-18T21:40:30.964Z,2.70
2022-08-18T21:42:59.484Z,2.30
2022-08-18T21:45:29.348Z,2.37
2022-08-18T21:47:58.550Z,2.20
2022-08-18T21:50:27.472Z,2.43
2022-08-18T21:52:56.415Z,2.20
2022-08-18T21:55:30.284Z,2.67
2022-08-18T21:58:08.581Z,2.70
2022-08-18T22:00:39.070Z,2.63
2022-08-18T22:03:25.740Z,2.38
2022-08-18T22:06:00.840Z,1.70
2022-08-18T22:08:30.053Z,1.90
2022-08-18T22:11:59.809Z,1.90
2022-08-18T22:14:36.260Z,2.25
2022-08-18T22:17:33.048Z,2.20
2022-08-18T22:20:38.480Z,3.00
2022-08-18T22:23:28.024Z,3.58
2022-08-18T22:26:06.537Z,2.55
2022-08-18T22:28:34.683Z,2.78
2022-08-18T22:31:02.720Z,2.70
2022-08-18T22:33:32.248Z,2.83
2022-08-18T22:36:00.408Z,2.95
2022-08-18T22:38:28.533Z,3.63
2022-08-18T22:40:56.847Z,2.63
2022-08-18T22:43:24.888Z,2.38
2022-08-18T22:45:52.934Z,2.00
2022-08-18T22:48:20.967Z,2.00
2022-08-18T22:50:51.489Z,2.05
2022-08-18T22:53:19.509Z,1.83
2022-08-18T22:55:47.532Z,2.03
2022-08-18T22:58:16.000Z,2.00
2022-08-18T23:00:49.668Z,1.90
2022-08-18T23:03:17.774Z,2.43
2022-08-18T23:05:45.989Z,2.27
2022-08-18T23:08:15.450Z,2.23
2022-08-18T23:10:43.608Z,2.83
2022-08-18T23:13:11.727Z,2.20
2022-08-18T23:15:46.749Z,1.95
2022-08-18T23:18:19.865Z,2.50
2022-08-18T23:20:49.080Z,2.15
2022-08-18T23:23:19.101Z,2.45
2022-08-18T23:25:47.724Z,2.17
2022-08-18T23:28:15.790Z,2.22
2022-08-18T23:30:44.623Z,2.50
2022-08-18T23:33:13.711Z,2.30
2022-08-18T23:35:41.996Z,2.40
2022-08-18T23:38:10.292Z,2.73
2022-08-18T23:40:40.270Z,2.00
2022-08-18T23:43:08.266Z,1.90
2022-08-18T23:45:36.331Z,2.20
2022-08-18T23:48:05.940Z,1.70
2022-08-18T23:50:34.222Z,1.97
2022-08-18T23:53:02.855Z,2.47
2022-08-18T23:55:31.047Z,2.40
2022-08-18T23:58:00.365Z,2.90
